Time;durP1;ratioP1;P1;durP2;ratioP2;P2;SDS_P1;SDS_P2;PMS_P1;PMS_P2;Temp;Humidity;BMP_temperature;BMP_pressure;BME280_temperature;BME280_humidity;BME280_pressure;Samples;Min_cycle;Max_cycle;Signal;HPM_P1;HPM_P2
2023/12/18 00:00:15;;;;;;;19.73;11.10;;;;;4.10;102839.00;;;;10071865;29;20239;-80
2023/12/18 00:05:17;;;;;;;19.27;11.30;;;;;4.10;102835.00;;;;10052436;29;20250;-80
2023/12/18 00:10:19;;;;;;;19.60;11.13;;;;;4.00;102829.00;;;;10068997;29;20741;-80
2023/12/18 00:15:20;;;;;;;15.97;11.27;;;;;3.90;102818.00;;;;10059428;29;20329;-80
2023/12/18 00:20:21;;;;;;;17.70;11.70;;;;;3.90;102807.00;;;;10069124;29;20231;-80
2023/12/18 00:25:22;;;;;;;16.33;11.27;;;;;3.80;102817.00;;;;10065925;29;20251;-80
2023/12/18 00:30:23;;;;;;;21.67;12.27;;;;;3.70;102824.00;;;;10076308;29;20279;-80
2023/12/18 00:35:24;;;;;;;16.50;11.37;;;;;3.70;102825.00;;;;10074654;29;20231;-80
2023/12/18 00:40:26;;;;;;;18.40;11.23;;;;;3.70;102826.00;;;;10048114;29;20246;-80
2023/12/18 00:45:27;;;;;;;21.70;12.40;;;;;3.60;102810.00;;;;10062283;29;20232;-80
2023/12/18 00:50:28;;;;;;;19.67;11.33;;;;;3.70;102818.00;;;;10072890;29;20219;-79
2023/12/18 00:55:29;;;;;;;23.90;12.03;;;;;3.60;102820.00;;;;10065614;29;20363;-79
2023/12/18 01:00:31;;;;;;;21.73;12.60;;;;;3.60;102819.00;;;;10050509;29;20618;-79
2023/12/18 01:05:32;;;;;;;20.47;12.13;;;;;3.60;102831.00;;;;10055578;29;20243;-79
2023/12/18 01:10:34;;;;;;;20.77;12.47;;;;;3.70;102837.00;;;;10060103;29;20255;-79
2023/12/18 01:15:35;;;;;;;21.73;12.80;;;;;3.70;102819.00;;;;10071215;29;20824;-79
2023/12/18 01:20:36;;;;;;;16.23;12.20;;;;;3.80;102835.00;;;;10066221;29;20227;-79
2023/12/18 01:25:37;;;;;;;22.03;13.93;;;;;3.90;102833.00;;;;10079262;29;20227;-78
2023/12/18 01:30:38;;;;;;;19.37;12.77;;;;;4.00;102834.00;;;;10065360;29;20243;-79
2023/12/18 01:35:40;;;;;;;20.57;13.13;;;;;4.10;102833.00;;;;10069008;29;20234;-79
2023/12/18 01:40:41;;;;;;;21.63;13.70;;;;;4.20;102845.00;;;;10115908;29;20648;-80
2023/12/18 01:45:42;;;;;;;27.27;13.13;;;;;4.20;102853.00;;;;10116588;29;20744;-79
2023/12/18 01:50:43;;;;;;;23.30;13.47;;;;;4.30;102849.00;;;;10061055;29;20919;-79
2023/12/18 01:55:44;;;;;;;21.23;13.60;;;;;4.30;102851.00;;;;10063945;29;20231;-79
2023/12/18 02:00:46;;;;;;;22.80;13.73;;;;;4.40;102854.00;;;;10063227;29;20246;-85
2023/12/18 02:05:49;;;;;;;18.73;13.07;;;;;4.40;102850.00;;;;10053193;29;20219;-80
2023/12/18 02:10:51;;;;;;;27.63;14.63;;;;;4.40;102851.00;;;;10069349;29;20459;-80
2023/12/18 02:15:52;;;;;;;26.47;14.20;;;;;4.50;102837.00;;;;10062897;29;20225;-80
2023/12/18 02:20:54;;;;;;;24.97;14.67;;;;;4.50;102816.00;;;;10069355;29;20234;-80
2023/12/18 02:25:55;;;;;;;29.07;15.50;;;;;4.50;102822.00;;;;10056039;29;20242;-80
2023/12/18 02:30:57;;;;;;;24.87;15.67;;;;;4.60;102819.00;;;;10052877;29;20678;-80
2023/12/18 02:36:00;;;;;;;27.53;16.80;;;;;4.60;102813.00;;;;10058847;29;21282;-80
2023/12/18 02:41:02;;;;;;;28.00;16.27;;;;;4.70;102821.00;;;;10052755;29;20228;-80
2023/12/18 02:46:03;;;;;;;29.93;17.93;;;;;4.70;102806.00;;;;10069184;29;20251;-80
2023/12/18 02:51:05;;;;;;;32.50;16.50;;;;;4.70;102805.00;;;;10067310;29;20238;-80
2023/12/18 02:56:06;;;;;;;33.40;18.33;;;;;4.70;102795.00;;;;10068422;29;20242;-80
2023/12/18 03:01:07;;;;;;;30.63;18.20;;;;;4.70;102789.00;;;;10059439;29;20303;-80
2023/12/18 03:06:10;;;;;;;31.73;18.53;;;;;4.70;102784.00;;;;10053143;29;20305;-80
2023/12/18 03:11:11;;;;;;;30.87;18.53;;;;;4.80;102778.00;;;;10080165;29;20240;-83
2023/12/18 03:16:14;;;;;;;30.30;17.50;;;;;4.80;102767.00;;;;10077233;29;20271;-82
2023/12/18 03:21:15;;;;;;;34.17;18.40;;;;;4.80;102774.00;;;;10075396;29;20251;-82
2023/12/18 03:26:16;;;;;;;33.20;18.17;;;;;4.80;102775.00;;;;10066858;29;20274;-83
2023/12/18 03:31:18;;;;;;;36.70;17.93;;;;;4.80;102777.00;;;;10063360;29;20231;-82
2023/12/18 03:36:19;;;;;;;38.70;19.33;;;;;4.90;102747.00;;;;10073123;29;20310;-82
2023/12/18 03:41:20;;;;;;;40.40;18.83;;;;;4.90;102751.00;;;;10075493;29;20247;-82
2023/12/18 03:46:21;;;;;;;40.83;19.00;;;;;4.90;102747.00;;;;10084640;29;20299;-82
2023/12/18 03:51:23;;;;;;;37.50;18.50;;;;;4.90;102747.00;;;;10061198;29;20231;-82
2023/12/18 03:56:24;;;;;;;36.23;18.27;;;;;4.90;102757.00;;;;10063256;29;20310;-83
2023/12/18 04:01:34;;;;;;;40.13;19.53;;;;;5.00;102754.00;;;;10069517;29;20226;-83
2023/12/18 04:06:41;;;;;;;32.97;17.10;;;;;5.00;102761.00;;;;10080725;29;20330;-83
2023/12/18 04:11:42;;;;;;;36.30;20.73;;;;;5.00;102748.00;;;;10064689;29;20772;-83
2023/12/18 04:16:43;;;;;;;36.97;18.80;;;;;5.00;102754.00;;;;10065152;29;20318;-78
2023/12/18 04:21:44;;;;;;;37.37;19.90;;;;;5.00;102763.00;;;;10075418;29;20255;-81
2023/12/18 04:26:46;;;;;;;36.07;19.17;;;;;5.00;102762.00;;;;10117168;29;20241;-81
2023/12/18 04:31:49;;;;;;;37.30;19.87;;;;;5.00;102759.00;;;;10111137;29;20249;-82
2023/12/18 04:36:51;;;;;;;34.70;18.70;;;;;5.00;102761.00;;;;10074320;29;20322;-82
2023/12/18 04:41:52;;;;;;;34.77;19.37;;;;;5.00;102751.00;;;;10079973;29;20645;-82
2023/12/18 04:46:53;;;;;;;39.47;19.23;;;;;5.00;102751.00;;;;10050948;29;20695;-83
2023/12/18 04:51:54;;;;;;;30.70;15.20;;;;;5.10;102752.00;;;;10075236;29;20307;-82
2023/12/18 04:56:56;;;;;;;36.00;19.07;;;;;5.10;102742.00;;;;10060408;29;20228;-82
2023/12/18 05:02:00;;;;;;;42.00;19.63;;;;;5.10;102743.00;;;;10072669;29;20231;-83
2023/12/18 05:07:01;;;;;;;39.13;20.30;;;;;5.20;102739.00;;;;10080556;29;20244;-82
2023/12/18 05:12:03;;;;;;;33.00;20.83;;;;;5.20;102737.00;;;;10060483;29;20231;-82
2023/12/18 05:17:04;;;;;;;39.17;19.83;;;;;5.20;102749.00;;;;10053352;29;20648;-82
2023/12/18 05:22:05;;;;;;;37.07;20.90;;;;;5.20;102740.00;;;;10062291;29;20264;-82
2023/12/18 05:27:07;;;;;;;36.53;19.27;;;;;5.30;102745.00;;;;10060866;29;20231;-84
2023/12/18 05:32:08;;;;;;;40.00;18.97;;;;;5.30;102744.00;;;;10059503;29;20277;-83
2023/12/18 05:37:09;;;;;;;34.00;18.17;;;;;5.30;102746.00;;;;10077144;29;20227;-83
2023/12/18 05:42:11;;;;;;;36.87;20.63;;;;;5.30;102756.00;;;;10066310;29;20242;-83
2023/12/18 05:47:12;;;;;;;38.33;19.73;;;;;5.30;102753.00;;;;10068778;29;20343;-84
2023/12/18 05:52:14;;;;;;;40.40;19.57;;;;;5.30;102756.00;;;;10067031;29;20378;-83
2023/12/18 05:57:16;;;;;;;35.77;19.40;;;;;5.20;102750.00;;;;10056421;29;20262;-83
2023/12/18 06:02:18;;;;;;;38.53;19.43;;;;;5.20;102746.00;;;;10054803;29;20919;-84
2023/12/18 06:07:19;;;;;;;43.50;20.97;;;;;5.20;102750.00;;;;10071360;29;20301;-83
2023/12/18 06:12:20;;;;;;;37.70;19.10;;;;;5.20;102751.00;;;;10052411;29;20257;-83
2023/12/18 06:17:22;;;;;;;39.87;19.37;;;;;5.10;102760.00;;;;10051713;29;20239;-84
2023/12/18 06:22:24;;;;;;;44.03;21.67;;;;;5.10;102763.00;;;;10057669;29;20234;-83
2023/12/18 06:27:25;;;;;;;45.20;19.53;;;;;5.10;102766.00;;;;10073268;29;20260;-84
2023/12/18 06:32:26;;;;;;;36.50;20.27;;;;;5.20;102762.00;;;;10065505;29;20223;-84
2023/12/18 06:37:28;;;;;;;38.13;20.20;;;;;5.20;102763.00;;;;10068041;29;20238;-78
2023/12/18 06:42:32;;;;;;;38.57;19.90;;;;;5.20;102758.00;;;;10051076;29;20247;-78
2023/12/18 06:47:33;;;;;;;37.67;19.13;;;;;5.30;102757.00;;;;10085858;29;20878;-80
2023/12/18 06:52:34;;;;;;;38.03;18.70;;;;;5.30;102761.00;;;;10065320;29;20248;-79
2023/12/18 06:57:35;;;;;;;36.63;19.63;;;;;5.30;102759.00;;;;10050536;29;20282;-80
2023/12/18 07:02:40;;;;;;;30.10;17.67;;;;;5.30;102753.00;;;;10068215;29;20228;-81
2023/12/18 07:07:45;;;;;;;32.47;17.93;;;;;5.30;102761.00;;;;10049298;29;20262;-80
2023/12/18 07:12:47;;;;;;;34.00;16.17;;;;;5.40;102769.00;;;;10066680;29;20316;-77
2023/12/18 07:17:48;;;;;;;28.53;15.40;;;;;5.40;102764.00;;;;10065134;29;20239;-77
2023/12/18 07:22:49;;;;;;;28.00;16.23;;;;;5.40;102763.00;;;;10080477;29;20243;-79
2023/12/18 07:27:51;;;;;;;32.30;16.60;;;;;5.40;102752.00;;;;10070349;29;20250;-80
2023/12/18 07:32:52;;;;;;;28.77;15.00;;;;;5.40;102755.00;;;;10071675;29;20303;-78
2023/12/18 07:37:53;;;;;;;31.77;15.93;;;;;5.40;102765.00;;;;10063633;29;20317;-79
2023/12/18 07:42:54;;;;;;;24.43;14.83;;;;;5.40;102767.00;;;;10056800;29;20949;-79
2023/12/18 07:47:56;;;;;;;29.40;15.93;;;;;5.40;102762.00;;;;10078236;29;20232;-83
2023/12/18 07:52:57;;;;;;;26.43;15.50;;;;;5.40;102780.00;;;;10078498;29;20590;-83
2023/12/18 07:57:58;;;;;;;32.60;15.80;;;;;5.40;102777.00;;;;10059193;29;20242;-83
2023/12/18 08:03:04;;;;;;;31.27;16.00;;;;;5.40;102777.00;;;;10073329;29;20260;-82
2023/12/18 08:08:06;;;;;;;27.10;15.47;;;;;5.50;102775.00;;;;10072905;29;20315;-82
2023/12/18 08:13:07;;;;;;;25.80;14.67;;;;;5.50;102784.00;;;;10059528;29;20263;-82
2023/12/18 08:18:08;;;;;;;27.57;15.57;;;;;5.40;102783.00;;;;10076168;29;20291;-82
2023/12/18 08:23:10;;;;;;;24.97;14.17;;;;;5.30;102772.00;;;;10067991;29;20263;-82
2023/12/18 08:28:11;;;;;;;29.13;14.03;;;;;5.10;102774.00;;;;10058907;29;20929;-81
2023/12/18 08:33:12;;;;;;;25.27;16.37;;;;;5.10;102760.00;;;;10059055;29;20284;-81
2023/12/18 08:38:14;;;;;;;29.97;14.73;;;;;5.00;102768.00;;;;10066718;29;20336;-83
2023/12/18 08:43:15;;;;;;;24.97;14.70;;;;;5.00;102771.00;;;;10071840;29;20417;-83
2023/12/18 08:48:16;;;;;;;23.50;13.73;;;;;5.00;102753.00;;;;10096269;29;20741;-83
2023/12/18 08:53:17;;;;;;;32.80;15.53;;;;;5.00;102762.00;;;;10062358;29;20234;-82
2023/12/18 08:58:21;;;;;;;25.53;13.57;;;;;5.10;102744.00;;;;10058605;29;20252;-77
2023/12/18 09:03:22;;;;;;;28.97;15.37;;;;;5.10;102743.00;;;;10058631;29;20298;-79
2023/12/18 09:08:26;;;;;;;27.93;15.13;;;;;5.20;102746.00;;;;10068020;29;20234;-77
2023/12/18 09:13:27;;;;;;;21.27;13.23;;;;;5.30;102741.00;;;;10082265;29;20230;-79
2023/12/18 09:18:28;;;;;;;24.50;13.23;;;;;5.40;102743.00;;;;10084368;29;20659;-79
2023/12/18 09:23:30;;;;;;;28.47;14.47;;;;;5.40;102741.00;;;;10085557;29;20247;-79
2023/12/18 09:28:32;;;;;;;26.67;14.90;;;;;5.50;102741.00;;;;10068510;29;20785;-76
2023/12/18 09:33:33;;;;;;;27.20;14.83;;;;;5.60;102739.00;;;;10085249;29;20231;-78
2023/12/18 09:38:37;;;;;;;23.73;12.63;;;;;5.70;102738.00;;;;10083139;29;20223;-79
2023/12/18 09:43:38;;;;;;;26.23;15.07;;;;;5.80;102754.00;;;;10068162;29;20232;-76
2023/12/18 09:48:40;;;;;;;32.63;15.10;;;;;5.80;102747.00;;;;10106085;29;20235;-77
2023/12/18 09:53:42;;;;;;;25.87;14.80;;;;;5.80;102744.00;;;;10071453;29;20236;-82
2023/12/18 09:58:45;;;;;;;26.50;13.17;;;;;5.90;102731.00;;;;10070522;29;20231;-78
2023/12/18 10:03:50;;;;;;;22.80;13.90;;;;;6.00;102721.00;;;;10049404;29;20286;-81
2023/12/18 10:08:51;;;;;;;26.33;12.73;;;;;6.00;102740.00;;;;10065542;29;20231;-80
2023/12/18 10:13:53;;;;;;;26.93;14.13;;;;;6.10;102746.00;;;;10074883;29;20227;-81
2023/12/18 10:18:56;;;;;;;24.80;13.10;;;;;6.10;102747.00;;;;10066574;29;20302;-80
2023/12/18 10:23:57;;;;;;;28.03;14.43;;;;;6.20;102755.00;;;;10040369;29;20223;-80
2023/12/18 10:28:59;;;;;;;24.53;13.03;;;;;6.30;102740.00;;;;10057253;29;20327;-81
2023/12/18 10:34:05;;;;;;;28.03;14.17;;;;;6.30;102733.00;;;;10060647;29;20424;-80
2023/12/18 10:39:09;;;;;;;22.57;13.77;;;;;6.40;102724.00;;;;10077824;29;20231;-80
2023/12/18 10:44:14;;;;;;;26.10;14.33;;;;;6.40;102723.00;;;;10071190;29;20280;-80
2023/12/18 10:49:20;;;;;;;20.07;12.93;;;;;6.40;102714.00;;;;10047362;29;20331;-80
2023/12/18 10:54:22;;;;;;;25.37;15.07;;;;;6.50;102701.00;;;;10079875;29;20238;-80
2023/12/18 10:59:26;;;;;;;25.17;14.37;;;;;6.70;102688.00;;;;10047441;29;20297;-80
2023/12/18 11:04:31;;;;;;;24.27;13.30;;;;;6.70;102696.00;;;;10060613;29;20235;-82
2023/12/18 11:09:35;;;;;;;22.80;14.00;;;;;6.70;102686.00;;;;10045964;29;20238;-81
2023/12/18 11:15:05;;;;;;;23.30;14.33;;;;;6.70;102686.00;;;;10061978;29;20232;-81
2023/12/18 11:20:15;;;;;;;20.57;13.87;;;;;6.70;102688.00;;;;10070788;29;20227;-84
2023/12/18 11:25:17;;;;;;;23.10;13.30;;;;;6.70;102686.00;;;;10055022;29;20235;-85
2023/12/18 11:30:28;;;;;;;23.97;14.40;;;;;6.60;102672.00;;;;10063160;29;20390;-84
2023/12/18 11:35:33;;;;;;;25.00;13.53;;;;;6.60;102672.00;;;;10080392;29;20234;-84
2023/12/18 11:40:41;;;;;;;22.83;13.03;;;;;6.70;102679.00;;;;10058382;29;20227;-85
2023/12/18 11:45:44;;;;;;;21.90;12.80;;;;;6.70;102680.00;;;;10067607;29;20232;-84
2023/12/18 11:50:48;;;;;;;24.50;13.47;;;;;6.60;102686.00;;;;10050751;29;20242;-84
2023/12/18 11:55:54;;;;;;;24.10;13.90;;;;;6.70;102669.00;;;;10072832;29;20223;-84
2023/12/18 12:00:56;;;;;;;23.03;13.13;;;;;6.70;102668.00;;;;10050074;29;20284;-84
2023/12/18 12:05:58;;;;;;;23.50;13.20;;;;;6.70;102674.00;;;;10069160;29;20232;-84
2023/12/18 12:10:59;;;;;;;23.27;14.33;;;;;6.60;102654.00;;;;10059736;29;20259;-85
2023/12/18 12:16:03;;;;;;;20.87;12.80;;;;;6.70;102645.00;;;;10060096;29;20238;-84
2023/12/18 12:21:04;;;;;;;20.70;11.90;;;;;6.60;102642.00;;;;10065467;29;20780;-85
2023/12/18 12:26:06;;;;;;;25.17;13.50;;;;;6.70;102627.00;;;;10059524;29;20258;-84
2023/12/18 12:31:08;;;;;;;25.73;13.73;;;;;6.60;102630.00;;;;10071054;29;20231;-84
2023/12/18 12:36:10;;;;;;;25.20;14.47;;;;;6.60;102638.00;;;;10058411;29;20260;-83
2023/12/18 12:41:12;;;;;;;22.40;14.53;;;;;6.50;102646.00;;;;10054978;29;20235;-84
2023/12/18 12:46:13;;;;;;;30.37;15.83;;;;;6.50;102644.00;;;;10054953;29;20275;-84
2023/12/18 12:51:21;;;;;;;34.70;16.63;;;;;6.50;102627.00;;;;10065172;29;20246;-85
2023/12/18 12:56:22;;;;;;;24.97;14.37;;;;;6.40;102588.00;;;;10075606;29;20234;-85
2023/12/18 13:01:23;;;;;;;25.37;15.57;;;;;6.40;102581.00;;;;10065804;29;20742;-85
2023/12/18 13:06:25;;;;;;;25.47;14.50;;;;;6.50;102559.00;;;;10073556;29;20231;-84
2023/12/18 13:11:26;;;;;;;25.60;15.63;;;;;6.50;102566.00;;;;10041898;29;20312;-85
2023/12/18 13:16:28;;;;;;;24.47;12.27;;;;;6.50;102563.00;;;;10049661;29;20239;-85
2023/12/18 13:21:29;;;;;;;25.10;14.20;;;;;6.50;102573.00;;;;10060194;29;20227;-85
2023/12/18 13:26:30;;;;;;;27.00;14.70;;;;;6.50;102571.00;;;;10061087;29;20267;-84
2023/12/18 13:31:33;;;;;;;25.73;12.83;;;;;6.40;102555.00;;;;10076815;29;20231;-84
2023/12/18 13:36:34;;;;;;;23.70;14.07;;;;;6.40;102554.00;;;;10053858;29;20227;-84
2023/12/18 13:41:36;;;;;;;23.13;15.43;;;;;6.20;102558.00;;;;10049256;29;20231;-81
2023/12/18 13:46:37;;;;;;;22.87;14.33;;;;;6.20;102562.00;;;;10060094;29;20827;-82
2023/12/18 13:51:39;;;;;;;26.10;16.63;;;;;6.10;102547.00;;;;10062721;29;20223;-81
2023/12/18 13:56:41;;;;;;;23.50;14.90;;;;;6.10;102525.00;;;;10064401;29;20254;-81
2023/12/18 14:01:44;;;;;;;22.80;15.50;;;;;6.00;102526.00;;;;10081133;29;20263;-82
2023/12/18 14:06:45;;;;;;;21.90;14.77;;;;;6.00;102522.00;;;;10044424;29;20299;-82
2023/12/18 14:11:47;;;;;;;26.70;15.80;;;;;5.90;102522.00;;;;10047374;29;20246;-81
2023/12/18 14:16:50;;;;;;;27.83;16.27;;;;;5.90;102523.00;;;;10050363;29;20331;-81
2023/12/18 14:21:51;;;;;;;22.10;15.43;;;;;6.00;102536.00;;;;10059097;29;20914;-82
2023/12/18 14:26:53;;;;;;;19.10;13.97;;;;;5.90;102531.00;;;;10052468;29;20275;-81
2023/12/18 14:31:54;;;;;;;25.40;15.37;;;;;5.80;102520.00;;;;10045714;29;20260;-81
2023/12/18 14:36:56;;;;;;;26.53;16.23;;;;;5.70;102548.00;;;;10066608;29;20239;-80
2023/12/18 14:41:57;;;;;;;27.33;16.23;;;;;5.60;102556.00;;;;10090407;29;20215;-81
2023/12/18 14:46:59;;;;;;;27.10;16.27;;;;;5.50;102534.00;;;;10079077;29;20231;-82
2023/12/18 14:52:01;;;;;;;28.17;15.90;;;;;5.50;102525.00;;;;10049303;29;20318;-81
2023/12/18 14:57:02;;;;;;;24.67;14.23;;;;;5.50;102519.00;;;;10047425;29;20923;-81
2023/12/18 15:02:03;;;;;;;24.27;14.83;;;;;5.40;102538.00;;;;10060896;29;20931;-81
2023/12/18 15:07:05;;;;;;;23.90;13.73;;;;;5.40;102536.00;;;;10060393;29;20235;-81
2023/12/18 15:12:07;;;;;;;14.77;10.10;;;;;5.30;102516.00;;;;10095611;29;20211;-81
2023/12/18 15:17:08;;;;;;;17.10;11.07;;;;;5.10;102511.00;;;;10087417;29;20900;-81
2023/12/18 15:22:10;;;;;;;21.60;12.40;;;;;4.90;102519.00;;;;10057038;29;20263;-81
2023/12/18 15:27:11;;;;;;;20.70;11.20;;;;;4.80;102530.00;;;;10043330;29;20319;-81
2023/12/18 15:32:12;;;;;;;17.57;10.73;;;;;4.70;102531.00;;;;10052838;29;20219;-81
2023/12/18 15:37:14;;;;;;;16.50;11.33;;;;;4.70;102533.00;;;;10071897;29;20710;-80
2023/12/18 15:42:15;;;;;;;22.03;13.43;;;;;4.60;102524.00;;;;10059391;29;20902;-81
2023/12/18 15:47:16;;;;;;;22.00;13.07;;;;;4.60;102529.00;;;;10044677;29;21051;-81
2023/12/18 15:52:18;;;;;;;23.10;12.90;;;;;4.60;102517.00;;;;10056442;29;20262;-81
2023/12/18 15:57:23;;;;;;;23.30;13.80;;;;;4.50;102522.00;;;;10048357;29;20322;-84
2023/12/18 16:02:24;;;;;;;18.80;11.97;;;;;4.50;102519.00;;;;10062820;29;20646;-85
2023/12/18 16:07:25;;;;;;;25.50;12.60;;;;;4.50;102492.00;;;;10067386;29;20234;-85
2023/12/18 16:12:27;;;;;;;25.33;14.63;;;;;4.50;102508.00;;;;10052160;29;20243;-85
2023/12/18 16:17:28;;;;;;;27.87;14.13;;;;;4.60;102485.00;;;;10059124;29;20238;-84
2023/12/18 16:22:29;;;;;;;26.97;15.50;;;;;4.60;102480.00;;;;10058680;29;20231;-85
2023/12/18 16:27:30;;;;;;;26.77;15.30;;;;;4.60;102472.00;;;;10071872;29;20326;-84
2023/12/18 16:32:31;;;;;;;28.50;14.00;;;;;4.60;102445.00;;;;10078802;29;20219;-84
2023/12/18 16:37:34;;;;;;;21.57;11.83;;;;;4.60;102453.00;;;;10072259;29;20255;-85
2023/12/18 16:42:36;;;;;;;26.40;14.87;;;;;4.60;102450.00;;;;10053680;29;20287;-84
2023/12/18 16:47:37;;;;;;;30.20;15.87;;;;;4.60;102456.00;;;;10069932;29;20757;-84
2023/12/18 16:52:41;;;;;;;29.77;15.80;;;;;4.60;102450.00;;;;10080538;29;20235;-84
2023/12/18 16:57:42;;;;;;;26.33;14.83;;;;;4.60;102442.00;;;;10066058;29;20372;-84
2023/12/18 17:02:43;;;;;;;29.43;16.47;;;;;4.60;102427.00;;;;10049188;29;20236;-85
2023/12/18 17:07:45;;;;;;;28.47;14.63;;;;;4.60;102428.00;;;;10070447;29;20262;-84
2023/12/18 17:12:46;;;;;;;24.87;15.17;;;;;4.60;102426.00;;;;10061103;29;20232;-83
2023/12/18 17:17:47;;;;;;;24.10;14.73;;;;;4.70;102439.00;;;;10066995;29;20231;-83
2023/12/18 17:22:49;;;;;;;28.93;16.30;;;;;4.70;102465.00;;;;10081734;29;20322;-83
2023/12/18 17:27:51;;;;;;;27.57;15.00;;;;;4.70;102457.00;;;;10064111;29;20270;-83
2023/12/18 17:32:52;;;;;;;28.33;15.40;;;;;4.70;102457.00;;;;10068562;29;20234;-83
2023/12/18 17:37:53;;;;;;;24.87;15.43;;;;;4.70;102454.00;;;;10082535;29;20238;-82
2023/12/18 17:42:54;;;;;;;27.70;15.73;;;;;4.70;102459.00;;;;10074957;29;20307;-83
2023/12/18 17:47:56;;;;;;;24.00;15.33;;;;;4.80;102464.00;;;;10070577;29;20750;-83
2023/12/18 17:52:57;;;;;;;23.47;13.07;;;;;4.80;102455.00;;;;10060670;29;20239;-83
2023/12/18 17:57:58;;;;;;;27.37;14.97;;;;;4.80;102428.00;;;;10084006;29;20261;-83
2023/12/18 18:03:00;;;;;;;25.10;12.77;;;;;4.80;102414.00;;;;10073348;29;20644;-84
2023/12/18 18:08:01;;;;;;;24.33;15.10;;;;;4.80;102423.00;;;;10062912;29;20231;-83
2023/12/18 18:13:03;;;;;;;24.40;14.20;;;;;4.80;102428.00;;;;10059625;29;20232;-83
2023/12/18 18:18:04;;;;;;;26.83;15.57;;;;;4.80;102407.00;;;;10071887;29;20242;-82
2023/12/18 18:23:05;;;;;;;25.87;14.93;;;;;4.80;102395.00;;;;10072165;29;20235;-81
2023/12/18 18:28:07;;;;;;;27.93;15.70;;;;;4.70;102403.00;;;;10056725;29;20249;-81
2023/12/18 18:33:09;;;;;;;28.03;15.03;;;;;4.70;102381.00;;;;10070483;29;20263;-81
2023/12/18 18:38:14;;;;;;;26.70;14.63;;;;;4.70;102390.00;;;;10084879;29;20228;-81
2023/12/18 18:43:16;;;;;;;28.77;16.87;;;;;4.70;102382.00;;;;10047876;29;20272;-81
2023/12/18 18:48:17;;;;;;;28.90;16.43;;;;;4.70;102363.00;;;;10053349;29;20705;-80
2023/12/18 18:53:18;;;;;;;27.07;15.63;;;;;4.70;102356.00;;;;10063049;29;20224;-81
2023/12/18 18:58:19;;;;;;;27.33;15.77;;;;;4.70;102354.00;;;;10076622;29;20251;-81
2023/12/18 19:03:21;;;;;;;24.80;14.47;;;;;4.70;102344.00;;;;10048057;29;20230;-81
2023/12/18 19:08:23;;;;;;;21.87;13.10;;;;;4.80;102348.00;;;;10046967;29;20239;-80
2023/12/18 19:13:24;;;;;;;24.30;14.87;;;;;4.80;102332.00;;;;10065163;29;20327;-80
2023/12/18 19:18:25;;;;;;;26.87;14.97;;;;;4.80;102335.00;;;;10049094;29;20223;-82
2023/12/18 19:23:27;;;;;;;22.40;13.90;;;;;4.90;102332.00;;;;10079612;29;20236;-80
2023/12/18 19:28:28;;;;;;;24.73;14.70;;;;;4.90;102320.00;;;;10050459;29;20271;-83
2023/12/18 19:33:29;;;;;;;24.83;13.53;;;;;4.90;102336.00;;;;10053837;29;20314;-79
2023/12/18 19:38:30;;;;;;;29.33;15.70;;;;;5.00;102346.00;;;;10089592;29;20231;-80
2023/12/18 19:43:31;;;;;;;21.40;14.60;;;;;5.00;102348.00;;;;10068904;29;20223;-79
2023/12/18 19:48:33;;;;;;;22.60;14.07;;;;;5.10;102347.00;;;;10086639;29;20877;-86
2023/12/18 19:53:35;;;;;;;23.00;13.20;;;;;5.10;102321.00;;;;10058710;29;20346;-81
2023/12/18 19:58:36;;;;;;;22.20;15.00;;;;;5.10;102317.00;;;;10088913;29;20232;-82
2023/12/18 20:03:37;;;;;;;21.90;13.87;;;;;5.10;102322.00;;;;10060490;29;20259;-80
2023/12/18 20:08:39;;;;;;;26.27;15.07;;;;;5.20;102332.00;;;;10058192;29;20320;-79
2023/12/18 20:13:40;;;;;;;21.90;14.97;;;;;5.30;102319.00;;;;10068425;29;20250;-81
2023/12/18 20:18:41;;;;;;;25.03;15.07;;;;;5.30;102331.00;;;;10060030;29;20323;-81
2023/12/18 20:23:43;;;;;;;21.50;13.33;;;;;5.40;102341.00;;;;10061641;29;20708;-80
2023/12/18 20:28:44;;;;;;;19.20;13.43;;;;;5.40;102342.00;;;;10063247;29;20277;-80
2023/12/18 20:33:46;;;;;;;19.47;13.70;;;;;5.30;102345.00;;;;10065938;29;20281;-85
2023/12/18 20:38:47;;;;;;;18.47;13.27;;;;;5.30;102339.00;;;;10064981;29;20289;-82
2023/12/18 20:43:48;;;;;;;19.93;12.20;;;;;5.30;102324.00;;;;10072529;29;20231;-82
2023/12/18 20:48:49;;;;;;;24.20;14.47;;;;;5.30;102293.00;;;;10060794;29;20232;-82
2023/12/18 20:53:51;;;;;;;25.63;16.43;;;;;5.30;102284.00;;;;10057886;29;20232;-83
2023/12/18 20:58:52;;;;;;;27.77;15.23;;;;;5.30;102270.00;;;;10090993;29;20760;-82
2023/12/18 21:03:53;;;;;;;24.83;15.37;;;;;5.30;102272.00;;;;10057072;29;20306;-82
2023/12/18 21:08:55;;;;;;;24.07;15.17;;;;;5.30;102247.00;;;;10055380;29;20259;-82
2023/12/18 21:13:56;;;;;;;22.77;14.40;;;;;5.30;102235.00;;;;10056837;29;20677;-82
2023/12/18 21:18:59;;;;;;;24.23;15.93;;;;;5.30;102232.00;;;;10085265;29;20247;-82
2023/12/18 21:24:01;;;;;;;22.37;14.13;;;;;5.30;102254.00;;;;10055446;29;20288;-82
2023/12/18 21:29:03;;;;;;;23.03;14.60;;;;;5.30;102247.00;;;;10058726;29;20269;-82
2023/12/18 21:34:05;;;;;;;25.37;14.90;;;;;5.30;102252.00;;;;10055709;29;20246;-82
2023/12/18 21:39:08;;;;;;;26.23;15.13;;;;;5.30;102243.00;;;;10071597;29;20228;-82
2023/12/18 21:44:15;;;;;;;26.37;15.97;;;;;5.30;102243.00;;;;10050755;29;20326;-82
2023/12/18 21:49:16;;;;;;;23.70;14.17;;;;;5.30;102246.00;;;;10053641;29;20318;-82
2023/12/18 21:54:20;;;;;;;23.33;14.77;;;;;5.30;102236.00;;;;10068999;29;20235;-82
2023/12/18 21:59:21;;;;;;;24.50;15.17;;;;;5.30;102232.00;;;;10063843;29;20283;-83
2023/12/18 22:04:22;;;;;;;26.40;15.63;;;;;5.30;102245.00;;;;10068125;29;20235;-82
2023/12/18 22:09:24;;;;;;;28.37;16.30;;;;;5.30;102253.00;;;;10053674;29;20239;-82
2023/12/18 22:14:25;;;;;;;27.80;17.03;;;;;5.30;102251.00;;;;10071912;29;20231;-82
2023/12/18 22:19:26;;;;;;;27.73;14.97;;;;;5.30;102257.00;;;;10057556;29;20219;-82
2023/12/18 22:24:28;;;;;;;30.97;16.50;;;;;5.40;102242.00;;;;10069666;29;20239;-82
2023/12/18 22:29:29;;;;;;;28.73;16.50;;;;;5.40;102227.00;;;;10053730;29;20232;-82
2023/12/18 22:34:32;;;;;;;29.07;16.57;;;;;5.40;102230.00;;;;10052962;29;20227;-82
2023/12/18 22:39:33;;;;;;;29.83;16.67;;;;;5.40;102260.00;;;;10056728;29;20315;-81
2023/12/18 22:44:34;;;;;;;26.97;15.30;;;;;5.50;102255.00;;;;10054766;29;20257;-81
2023/12/18 22:49:36;;;;;;;33.77;17.97;;;;;5.50;102267.00;;;;10065508;29;20220;-82
2023/12/18 22:54:38;;;;;;;25.77;15.27;;;;;5.50;102246.00;;;;10055446;29;20754;-82
2023/12/18 22:59:39;;;;;;;28.33;16.10;;;;;5.60;102227.00;;;;10072928;29;20512;-84
2023/12/18 23:04:40;;;;;;;22.17;13.40;;;;;5.60;102224.00;;;;10065355;29;20395;-84
2023/12/18 23:09:42;;;;;;;32.20;17.43;;;;;5.60;102226.00;;;;10062022;29;20235;-83
2023/12/18 23:14:43;;;;;;;32.53;17.23;;;;;5.60;102220.00;;;;10069451;29;20239;-84
2023/12/18 23:19:44;;;;;;;29.53;16.43;;;;;5.60;102219.00;;;;10068469;29;20235;-84
2023/12/18 23:24:45;;;;;;;27.50;17.17;;;;;5.60;102196.00;;;;10093142;29;20239;-83
2023/12/18 23:29:47;;;;;;;29.27;16.53;;;;;5.60;102203.00;;;;10122302;28;20219;-82
2023/12/18 23:34:48;;;;;;;38.23;18.63;;;;;5.60;102202.00;;;;10116058;29;20310;-83
2023/12/18 23:39:52;;;;;;;29.03;17.27;;;;;5.60;102180.00;;;;10063771;29;20702;-82
2023/12/18 23:44:53;;;;;;;32.60;17.87;;;;;5.60;102170.00;;;;10077789;29;20239;-83
2023/12/18 23:49:54;;;;;;;27.70;16.80;;;;;5.50;102157.00;;;;10082976;29;20212;-84
2023/12/18 23:54:55;;;;;;;32.50;17.10;;;;;5.50;102166.00;;;;10073526;29;20227;-84
2023/12/18 23:59:57;;;;;;;29.73;16.93;;;;;5.50;102170.00;;;;10091495;29;20257;-84
